Terminal Aerodrome Forecast
Issued by NWS

Home | Current Version | Previous Version | Text Only | Print | Product List | Glossary On
Versions: 1 2 3 4 5 6 7 8 9 10 11 12 13 14 15 16 17 18 19 20 21 22 23 24 25 26 27 28 29 30 31 32 33 34 35 36 37 38
000
FTUS45 KBOU 101759
TAFAPA
TAF
KAPA 101759Z 1018/1118 18007KT P6SM FEW090 SCT150 BKN200
     FM110100 23010KT P6SM SCT090 BKN180
     FM110400 26008KT P6SM SCT080 BKN150
     FM110800 34008KT P6SM BKN080 OVC120 PROB30 1109/1113 4SM -SN
      BKN050
     FM111300 36008KT P6SM SCT060 BKN120
     FM111600 06008KT P6SM SCT080=

USA.gov is the U.S. government's official web portal to all federal, state and local government web resources and services.